createdAt,value
2023-02-26T00:01:09.931Z,29.5
2023-02-26T00:07:03.188Z,28.7
2023-02-26T00:12:42.652Z,27.9
2023-02-26T00:18:37.533Z,27.1
2023-02-26T00:24:29.901Z,31.8
2023-02-26T00:30:23.283Z,32
2023-02-26T00:36:16.689Z,30.6
2023-02-26T00:42:10.103Z,29.6
2023-02-26T00:48:03.696Z,28.7
2023-02-26T00:53:56.059Z,27.9
2023-02-26T00:59:47.634Z,27.3
2023-02-26T01:05:40.395Z,33.1
2023-02-26T01:11:33.180Z,31.1
2023-02-26T01:17:25.848Z,30.1
2023-02-26T01:23:20.286Z,29.2
2023-02-26T01:29:13.324Z,28.3
2023-02-26T01:35:07.359Z,27.1
2023-02-26T01:41:00.934Z,33.6
2023-02-26T01:46:53.848Z,31.4
2023-02-26T01:52:47.212Z,30.3
2023-02-26T01:58:40.916Z,29.4
2023-02-26T02:04:33.595Z,28.4
2023-02-26T02:10:26.055Z,27
2023-02-26T02:16:03.648Z,33.7
2023-02-26T02:21:41.006Z,31.3
2023-02-26T02:27:34.057Z,30.2
2023-02-26T02:33:28.910Z,29.3
2023-02-26T02:39:21.906Z,28.4
2023-02-26T02:45:15.503Z,29.4
2023-02-26T02:51:10.595Z,33.2
2023-02-26T02:57:02.690Z,31.1
2023-02-26T03:02:56.285Z,30
2023-02-26T03:08:50.556Z,29.1
2023-02-26T03:14:43.344Z,28.2
2023-02-26T03:20:37.125Z,31.9
2023-02-26T03:26:29.997Z,32.4
2023-02-26T03:32:23.712Z,30.7
2023-02-26T03:38:15.999Z,29.7
2023-02-26T03:43:53.183Z,28.8
2023-02-26T03:49:46.056Z,27.3
2023-02-26T03:55:23.786Z,33.8
2023-02-26T04:01:17.253Z,31.5
2023-02-26T04:06:55.390Z,30.3
2023-02-26T04:12:35.004Z,29.4
2023-02-26T04:18:12.839Z,28.6
2023-02-26T04:24:05.940Z,29.5
2023-02-26T04:29:58.289Z,33.2
2023-02-26T04:35:52.064Z,30.9
2023-02-26T04:41:29.009Z,29.8
2023-02-26T04:47:22.642Z,28.9
2023-02-26T04:53:00.555Z,28.1
2023-02-26T04:58:39.377Z,32.3
2023-02-26T05:04:00.228Z,32.4
2023-02-26T05:09:53.878Z,30.8
2023-02-26T05:15:47.288Z,29.9
2023-02-26T05:21:42.789Z,28.9
2023-02-26T05:27:35.996Z,27.5
2023-02-26T05:33:29.564Z,33.8
2023-02-26T05:39:22.413Z,31.4
2023-02-26T05:45:15.120Z,30.1
2023-02-26T05:51:08.975Z,29.2
2023-02-26T05:56:45.945Z,28.3
2023-02-26T06:02:38.506Z,32.4
2023-02-26T06:08:31.111Z,32.4
2023-02-26T06:14:22.689Z,30.9
2023-02-26T06:20:16.635Z,29.9
2023-02-26T06:26:08.270Z,28.9
2023-02-26T06:32:02.482Z,30.4
2023-02-26T06:37:40.180Z,33.4
2023-02-26T06:43:18.399Z,31.2
2023-02-26T06:49:10.965Z,30.2
2023-02-26T06:55:03.603Z,29.2
2023-02-26T07:00:56.329Z,28.3
2023-02-26T07:07:08.347Z,27.4
2023-02-26T07:13:04.420Z,32.1
2023-02-26T07:18:57.598Z,31.5
2023-02-26T07:24:51.070Z,30.4
2023-02-26T07:30:46.387Z,29.3
2023-02-26T07:36:40.240Z,28.3
2023-02-26T07:42:31.800Z,27.5
2023-02-26T07:48:09.904Z,26.8
2023-02-26T07:54:01.825Z,31.3
2023-02-26T07:59:54.185Z,31.8
2023-02-26T08:05:47.609Z,30.7
2023-02-26T08:11:40.068Z,29.7
2023-02-26T08:17:33.406Z,28.8
2023-02-26T08:23:12.428Z,27.9
2023-02-26T08:28:49.318Z,27.1
2023-02-26T08:34:42.702Z,29.6
2023-02-26T08:40:20.901Z,32.2
2023-02-26T08:46:00.183Z,31.3
2023-02-26T08:52:04.545Z,30.3
2023-02-26T08:57:57.119Z,29.1
2023-02-26T09:03:49.296Z,28.1
2023-02-26T09:09:45.761Z,27.3
2023-02-26T09:15:23.703Z,26.4
2023-02-26T09:21:16.755Z,25.8
2023-02-26T09:27:09.971Z,25.2
2023-02-26T09:32:48.254Z,24.8
2023-02-26T09:38:40.664Z,24.3
2023-02-26T09:44:35.105Z,24.1
2023-02-26T09:50:12.822Z,23.8
2023-02-26T09:56:04.201Z,23.5
2023-02-26T10:01:56.463Z,23.3
2023-02-26T10:07:50.227Z,23.2
2023-02-26T10:13:56.378Z,23
2023-02-26T10:19:02.975Z,22.9
2023-02-26T10:24:56.907Z,22.8
2023-02-26T10:30:49.956Z,22.6
2023-02-26T10:36:15.810Z,22.6
2023-02-26T10:42:08.872Z,22.4
2023-02-26T10:47:46.344Z,22.4
2023-02-26T10:53:07.834Z,22.3
2023-02-26T10:58:45.826Z,22.3
2023-02-26T11:04:22.975Z,22.2
2023-02-26T11:10:05.723Z,22.1
2023-02-26T11:16:00.937Z,22.1
2023-02-26T11:21:53.835Z,22.1
2023-02-26T11:27:48.069Z,22.1
2023-02-26T11:33:44.485Z,22
2023-02-26T11:39:40.917Z,21.9
2023-02-26T11:45:17.490Z,21.9
2023-02-26T11:50:55.775Z,21.8
2023-02-26T11:56:17.352Z,21.8
2023-02-26T12:01:56.390Z,21.8
2023-02-26T12:07:49.749Z,21.7
2023-02-26T12:13:43.731Z,21.6
2023-02-26T12:19:22.586Z,21.6
2023-02-26T12:25:16.446Z,21.6
2023-02-26T12:30:53.738Z,21.6
2023-02-26T12:37:04.135Z,21.6
2023-02-26T12:42:57.446Z,21.5
2023-02-26T12:48:34.870Z,21.4
2023-02-26T12:54:27.682Z,21.4
2023-02-26T13:00:21.074Z,21.4
2023-02-26T13:06:24.470Z,21.4
2023-02-26T13:12:17.046Z,21.4
2023-02-26T13:18:10.059Z,21.4
2023-02-26T13:24:02.352Z,21.3
2023-02-26T13:29:54.085Z,21.3
2023-02-26T13:35:52.685Z,21.3
2023-02-26T13:41:45.916Z,21.2
2023-02-26T13:57:50.770Z,21.1
2023-02-26T14:03:29.355Z,21.1
2023-02-26T14:09:06.829Z,21
2023-02-26T14:14:45.616Z,20.9
2023-02-26T14:20:38.596Z,20.9
2023-02-26T14:26:31.579Z,20.9
2023-02-26T14:32:25.846Z,20.9
2023-02-26T14:38:18.615Z,20.9
2023-02-26T14:44:15.113Z,20.8
2023-02-26T14:50:08.203Z,20.8
2023-02-26T14:56:00.852Z,20.8
2023-02-26T15:01:52.708Z,20.8
2023-02-26T15:07:45.723Z,20.8
2023-02-26T15:13:40.996Z,20.8
2023-02-26T15:19:34.642Z,20.7
2023-02-26T15:25:28.016Z,20.7
2023-02-26T15:31:21.635Z,20.7
2023-02-26T15:37:16.396Z,20.7
2023-02-26T15:43:09.682Z,20.7
2023-02-26T15:49:10.303Z,20.6
2023-02-26T15:55:03.769Z,20.6
2023-02-26T16:00:56.869Z,20.6
2023-02-26T16:06:34.080Z,20.6
2023-02-26T16:12:26.908Z,20.6
2023-02-26T16:18:20.424Z,20.6
2023-02-26T16:24:13.693Z,20.6
2023-02-26T16:30:06.947Z,20.6
2023-02-26T16:35:46.015Z,20.6
2023-02-26T16:41:24.039Z,20.7
2023-02-26T16:47:02.819Z,20.6
2023-02-26T16:52:26.684Z,20.7
2023-02-26T16:57:48.286Z,20.7
2023-02-26T17:03:29.042Z,20.7
2023-02-26T17:09:24.010Z,20.8
2023-02-26T17:15:19.796Z,20.7
2023-02-26T17:21:14.970Z,20.7
2023-02-26T17:27:07.842Z,20.8
2023-02-26T17:33:01.723Z,20.8
2023-02-26T17:38:55.124Z,20.8
2023-02-26T17:44:48.300Z,20.8
2023-02-26T17:50:41.717Z,20.8
2023-02-26T17:56:35.528Z,20.8
2023-02-26T18:02:29.351Z,20.8
2023-02-26T18:08:23.609Z,20.8
2023-02-26T18:14:16.785Z,20.8
2023-02-26T18:20:10.675Z,20.8
2023-02-26T18:26:03.394Z,20.8
2023-02-26T18:31:57.724Z,20.8
2023-02-26T18:37:50.514Z,20.9
2023-02-26T18:43:43.776Z,20.8
2023-02-26T18:49:37.261Z,20.8
2023-02-26T18:55:30.155Z,20.8
2023-02-26T19:01:27.398Z,20.8
2023-02-26T19:07:21.100Z,20.8
2023-02-26T19:13:13.749Z,20.8
2023-02-26T19:19:07.862Z,20.8
2023-02-26T19:25:01.548Z,20.8
2023-02-26T19:30:57.764Z,20.8
2023-02-26T19:36:56.061Z,20.8
2023-02-26T19:42:50.070Z,20.8
2023-02-26T19:48:43.849Z,20.8
2023-02-26T19:54:36.117Z,20.8
2023-02-26T20:00:29.434Z,20.8
2023-02-26T20:06:23.283Z,20.8
2023-02-26T20:12:18.115Z,20.9
2023-02-26T20:18:12.068Z,20.8
2023-02-26T20:24:05.373Z,20.8
2023-02-26T20:29:42.148Z,20.9
2023-02-26T20:35:40.176Z,20.8
2023-02-26T20:41:35.387Z,20.9
2023-02-26T20:47:28.940Z,20.9
2023-02-26T20:53:22.894Z,27.6
2023-02-26T20:59:00.945Z,32.3
2023-02-26T21:04:38.789Z,31.9
2023-02-26T21:10:32.327Z,30.6
2023-02-26T21:16:25.359Z,32.3
2023-02-26T21:22:18.707Z,31.5
2023-02-26T21:28:13.643Z,30.4
2023-02-26T21:34:30.089Z,29.9
2023-02-26T21:40:25.848Z,33.6
2023-02-26T21:46:20.031Z,32.3
2023-02-26T21:52:13.737Z,30.8
2023-02-26T21:58:06.196Z,32.1
2023-02-26T22:03:59.645Z,33.3
2023-02-26T22:09:52.542Z,31.1
2023-02-26T22:15:45.322Z,30
2023-02-26T22:21:37.673Z,32.3
2023-02-26T22:27:30.058Z,33
2023-02-26T22:33:22.830Z,30.9
2023-02-26T22:39:15.549Z,29.8
2023-02-26T22:45:08.780Z,31.2
2023-02-26T22:51:00.845Z,33.3
2023-02-26T22:56:53.528Z,31.1
2023-02-26T23:02:46.868Z,30
2023-02-26T23:08:39.627Z,28.1
2023-02-26T23:14:32.620Z,33.2
2023-02-26T23:20:25.131Z,31.8
2023-02-26T23:26:17.082Z,30.5
2023-02-26T23:32:10.074Z,29.6
2023-02-26T23:38:02.145Z,29.6
2023-02-26T23:43:54.937Z,33.8
2023-02-26T23:49:47.350Z,31.4
2023-02-26T23:55:39.046Z,30.3
